Date,TemperatureHighF,TemperatureAvgF,TemperatureLowF,DewpointHighF,DewpointAvgF,DewpointLowF,HumidityHigh,HumidityAvg,HumidityLow,PressureMaxIn,PressureMinIn,WindSpeedMaxMPH,WindSpeedAvgMPH,GustSpeedMaxMPH,PrecipitationSumIn
2013-1-1,43,39,35,16,13,8,41,34,29,29.32,29.21,14,1,14,0.00
2013-1-2,36,33,28,15,6,0,41,32,25,29.50,29.29,10,1,10,0.00
2013-1-3,37,30,21,8,4,0,43,33,29,29.50,29.41,8,0,8,0.00
2013-1-4,39,35,31,10,6,4,31,30,26,29.50,29.41,15,3,15,0.00
2013-1-5,43,36,31,11,8,4,34,30,25,29.65,29.44,13,1,13,0.00
2013-1-6,47,40,32,18,13,10,42,33,27,29.47,29.32,11,1,11,0.00
2013-1-7,42,37,27,17,10,6,43,33,29,29.74,29.44,12,1,12,0.00
2013-1-8,51,36,25,21,13,6,51,39,26,29.68,29.59,9,0,9,0.00
2013-1-9,54,44,28,31,20,12,51,39,26,29.71,29.50,12,1,12,0.00
2013-1-10,53,46,38,18,14,10,32,27,21,29.88,29.71,11,1,11,0.00
2013-1-11,52,44,39,34,21,12,69,41,27,29.74,29.38,8,1,8,0.00
2013-1-12,54,48,43,44,39,34,76,70,61,29.47,29.38,2,0,2,0.00
2013-1-13,62,53,45,50,41,36,77,66,48,29.38,29.23,3,0,3,0.00
2013-1-14,61,52,41,51,32,19,71,48,30,29.62,29.23,10,1,10,0.00
2013-1-15,43,40,36,28,24,17,69,54,39,29.62,29.44,3,0,3,0.00
2013-1-16,42,39,35,34,30,26,73,71,68,29.44,29.12,6,0,6,0.00
2013-1-17,43,40,37,34,17,11,73,40,29,29.41,29.26,4,0,7,0.00
2013-1-18,37,33,30,15,5,-2,41,31,25,29.77,29.35,13,2,13,0.00
2013-1-19,55,42,30,18,11,4,40,29,20,29.65,29.21,9,2,9,0.00
2013-1-20,53,44,35,19,8,-3,31,22,18,29.38,29.12,24,4,24,0.00
2013-1-21,43,34,26,6,0,-7,30,24,20,29.38,29.09,19,1,19,0.00
2013-1-22,26,18,14,-6,-13,-16,26,23,22,29.56,29.23,17,3,17,0.00
2013-1-23,25,20,13,-8,-12,-17,25,23,21,29.59,29.38,10,1,10,0.00
2013-1-24,26,20,16,5,-4,-13,55,35,24,29.80,29.35,13,1,13,0.00
2013-1-25,25,20,15,4,-4,-13,46,34,25,29.80,29.32,8,1,8,0.00
2013-1-26,35,27,20,15,9,2,51,46,32,29.71,29.35,8,0,8,0.00
2013-1-27,36,29,21,9,4,0,41,34,30,29.85,29.71,6,0,6,0.00
2013-1-28,52,40,30,36,23,9,59,51,40,29.74,29.32,9,1,9,0.00
2013-1-29,69,59,51,45,37,32,61,45,32,29.41,29.23,8,2,8,0.00
2013-1-30,70,59,52,50,44,33,74,59,40,29.23,28.53,23,1,23,0.00
2013-1-31,58,40,30,51,13,-1,77,35,24,29.18,28.50,26,6,26,0.00
2013-2-1,31,24,17,18,-4,-12,67,30,24,29.65,29.09,20,3,20,0.00
2013-2-2,32,23,13,9,-1,-12,43,35,28,29.65,29.26,8,1,8,0.00
2013-2-3,38,30,25,20,11,0,52,45,31,29.29,29.09,15,1,15,0.00
2013-2-4,41,32,24,8,3,-2,32,29,23,29.35,29.15,15,2,15,0.00
2013-2-5,40,35,32,23,17,6,60,48,31,29.21,29.12,3,0,3,0.00
2013-2-6,42,37,28,27,15,8,65,43,30,29.62,29.21,13,1,13,0.00
2013-2-7,41,34,26,15,10,7,47,38,29,29.68,29.47,8,1,8,0.00
2013-2-8,42,37,33,27,18,7,61,46,33,29.47,29.09,17,1,17,0.00
2013-2-9,38,33,27,8,3,-4,38,29,21,29.68,29.26,19,2,19,0.00
2013-2-10,45,34,20,12,4,-2,43,30,20,29.74,29.44,11,2,11,0.00
2013-2-11,64,50,37,39,24,6,63,39,17,29.47,28.97,25,2,25,0.00
2013-2-12,54,47,39,13,9,2,26,21,18,29.26,29.15,26,3,26,0.00
2013-2-13,45,37,32,24,14,3,60,40,23,29.23,28.97,4,0,4,0.00
2013-2-14,37,35,33,25,18,11,62,50,36,29.26,29.06,5,0,5,0.00
2013-2-15,55,42,34,26,19,13,57,41,26,29.32,29.21,10,1,10,0.00
2013-2-16,38,35,28,22,10,-3,57,37,25,29.29,29.15,8,0,8,0.00
2013-2-17,30,25,23,9,-2,-7,53,29,23,29.50,29.15,22,4,22,0.00
2013-2-18,43,31,19,5,-1,-9,32,25,20,29.65,29.38,10,1,10,0.00
2013-2-19,53,41,34,27,14,4,49,33,26,29.38,28.97,17,3,17,0.00
2013-2-20,36,31,23,7,-2,-8,30,24,22,29.47,29.15,23,4,23,0.00
2013-2-21,35,28,23,3,-2,-8,31,27,24,29.62,29.41,16,2,16,0.00
2013-2-22,34,31,28,16,9,1,48,39,31,29.65,29.44,7,1,7,0.00
2013-2-23,50,40,34,30,22,16,65,50,39,29.44,29.12,5,0,5,0.00
2013-2-24,48,40,31,32,17,4,72,42,25,29.41,29.09,15,2,15,0.00
2013-2-25,44,34,26,11,6,2,41,30,23,29.50,29.41,6,0,6,0.00
2013-2-26,43,35,27,38,20,4,84,55,35,29.47,28.94,4,0,4,0.00
2013-2-27,54,46,40,48,28,16,87,56,26,29.00,28.85,15,2,15,0.00
2013-2-28,44,42,40,20,19,17,40,39,36,28.94,28.94,8,0,8,0.00
2013-3-1,40,37,34,11,9,7,34,31,28,29.21,29.09,10,1,10,0.00
2013-3-2,37,33,30,8,6,3,34,31,29,29.21,29.12,12,1,12,0.00
2013-3-3,37,32,28,7,4,1,36,30,24,29.23,29.12,17,3,17,0.00
2013-3-4,40,32,26,4,1,-2,32,27,21,29.32,29.23,17,3,17,0.00
2013-3-5,50,41,33,16,5,1,44,23,19,29.35,29.09,5,1,6,0.00
2013-3-6,40,37,34,35,25,16,88,65,39,29.32,28.97,8,1,8,0.00
2013-3-7,44,40,36,16,14,10,42,34,28,29.47,29.32,12,1,12,0.00
2013-3-8,44,38,35,14,12,10,40,33,28,29.59,29.44,14,2,14,0.00
2013-3-9,54,42,33,16,11,3,41,29,18,29.68,29.53,8,1,8,0.00
2013-3-10,61,47,30,21,13,6,43,27,16,29.59,29.47,10,2,10,0.00
2013-3-11,60,51,43,35,20,6,46,31,19,29.47,29.15,10,2,10,0.00
2013-3-12,57,50,40,43,27,11,70,41,28,29.26,29.06,14,3,14,0.00
2013-3-13,40,40,39,12,11,9,30,29,29,29.26,29.23,14,3,14,0.00
2013-3-14,37,37,37,2,2,2,22,22,22,29.38,29.38,8,2,8,0.00
2013-3-15,59,44,32,17,8,1,30,23,18,29.38,29.06,14,3,14,0.00
2013-3-17,40,38,34,22,15,9,54,40,29,29.53,29.21,4,0,4,0.00
2013-3-18,38,35,33,26,18,10,67,50,31,29.56,29.18,5,0,5,0.00
2013-3-19,56,44,35,37,20,0,72,45,18,29.23,29.03,28,4,28,0.00
2013-3-20,52,42,34,15,3,-3,40,20,16,29.26,29.06,19,4,19,0.00
2013-3-21,36,31,27,14,0,-7,40,27,20,29.18,29.09,10,2,15,0.00
2013-3-22,44,35,25,6,1,-6,29,23,20,29.29,29.18,16,3,16,0.00
2013-3-23,51,39,26,11,6,0,38,25,19,29.32,29.21,13,1,13,0.00
2013-3-24,44,36,30,20,10,3,55,36,23,29.29,28.91,6,0,6,0.00
2013-3-25,43,37,34,27,22,17,65,55,39,29.00,28.82,4,0,4,0.00
2013-3-26,36,36,35,24,22,19,60,56,50,29.03,29.00,5,0,5,0.00
2013-3-29,54,50,41,19,11,4,27,20,18,29.53,29.44,10,1,10,0.00
2013-3-30,58,45,32,17,10,4,40,25,17,29.53,29.38,9,0,9,0.00
2013-3-31,52,45,39,35,24,6,62,44,23,29.38,29.06,4,0,4,0.00
2013-4-1,61,47,38,35,22,1,65,40,21,29.29,29.06,17,2,20,0.00
2013-4-2,45,39,32,6,1,-5,25,20,17,29.47,29.29,14,2,14,0.00
2013-4-3,48,37,29,6,0,-6,25,21,17,29.68,29.47,17,1,17,0.00
2013-4-4,52,38,23,11,3,-6,33,23,16,29.68,29.35,8,1,8,0.00
2013-4-5,62,49,37,27,15,4,52,29,16,29.35,29.12,13,1,13,0.00
2013-4-6,56,45,35,12,7,-1,30,20,16,29.62,29.35,8,1,8,0.00
2013-4-7,70,57,41,27,19,6,31,23,17,29.50,29.23,10,3,10,0.00
2013-4-8,79,68,56,32,26,22,35,22,15,29.35,29.21,10,2,10,0.00
2013-4-9,83,72,62,36,31,26,29,22,16,29.38,29.21,10,2,10,0.00
2013-4-10,89,77,66,38,32,27,27,20,13,29.26,29.09,15,2,15,0.00
2013-4-11,86,74,61,39,34,31,43,24,18,29.18,29.00,8,1,8,0.00
2013-4-12,73,61,54,50,42,21,70,51,24,29.09,28.85,10,0,10,0.00
2013-4-13,68,58,50,25,19,11,30,22,15,29.26,29.09,17,2,17,0.00
2013-4-14,67,55,43,22,18,10,37,24,17,29.44,29.26,8,0,8,0.00
2013-4-15,62,58,56,37,28,22,45,32,25,29.56,29.41,8,2,8,0.00
2013-4-16,75,66,57,45,40,35,53,40,28,29.56,29.38,13,3,13,0.00
2013-4-17,72,66,60,59,46,39,72,50,35,29.50,29.41,10,0,13,0.00
2013-4-18,76,68,62,50,43,37,56,42,31,29.50,29.26,13,2,13,0.00
2013-4-19,76,66,53,55,42,20,71,41,27,29.26,28.88,15,3,15,0.00
2013-4-20,58,51,43,20,12,6,27,21,17,29.65,29.12,20,4,20,0.00
2013-4-21,54,45,36,14,8,4,29,22,18,29.88,29.65,6,0,6,0.00
2013-4-22,57,46,35,22,17,10,46,31,20,29.83,29.68,8,1,8,0.00
2013-4-23,59,49,38,28,23,17,44,36,28,29.68,29.38,6,0,6,0.00
2013-4-24,47,45,44,26,26,26,50,48,44,29.38,29.35,0,0,0,0.00
2013-5-1,69,61,52,41,27,16,56,30,15,29.71,29.59,6,0,6,0.08
2013-5-2,68,57,42,35,27,20,52,33,22,29.71,29.59,6,0,6,0.00
2013-5-3,69,57,44,40,28,19,55,35,20,29.68,29.56,8,1,8,0.00
2013-5-4,68,56,44,34,26,20,50,32,20,29.62,29.47,6,0,6,0.00
2013-5-5,64,54,43,31,24,21,49,33,23,29.53,29.41,6,0,6,0.00
2013-5-6,60,54,45,53,39,23,78,58,38,29.47,29.35,3,0,3,0.12
2013-5-7,60,60,60,54,54,53,81,79,78,29.35,29.29,4,0,4,0.00
2013-5-16,78,74,68,43,37,32,37,26,21,29.26,29.15,14,4,14,0.00
2013-5-17,83,71,58,46,38,32,52,31,19,29.41,29.26,8,1,8,0.00
2013-6-1,90,84,76,48,44,40,37,25,19,29.26,29.21,8,2,8,0.00
2013-6-2,86,75,70,70,54,42,84,52,30,29.21,29.15,11,0,11,1.18
2013-6-3,80,73,65,67,51,36,83,51,24,29.29,29.18,9,0,9,0.20
2013-6-4,76,66,55,37,30,24,42,28,18,29.44,29.29,7,0,7,0.00
2013-6-5,80,68,55,43,38,34,54,35,21,29.47,29.32,8,0,8,0.00
2013-6-6,70,66,64,57,45,33,71,48,31,29.35,29.18,7,0,7,0.59
2013-6-7,66,66,66,57,56,56,72,71,71,29.18,29.12,0,0,0,0.00
2013-6-13,74,72,67,59,51,38,61,49,35,29.12,28.94,5,0,5,0.51
2013-6-14,78,70,63,39,35,30,36,28,18,29.32,28.97,9,2,9,0.00
2013-6-15,77,68,59,47,38,33,48,36,20,29.41,29.29,8,1,8,0.00
2013-6-17,87,82,74,54,46,40,43,29,20,29.26,29.21,8,0,8,0.00
2013-6-18,74,71,69,55,53,50,56,53,43,29.23,29.18,4,0,4,0.00
2013-6-27,85,80,74,60,50,46,50,35,29,29.00,28.94,13,2,13,0.00
2013-6-28,90,79,72,56,50,42,51,39,19,28.97,28.82,12,2,12,0.00
2013-6-30,89,83,75,58,54,50,46,37,29,29.15,29.03,6,1,6,0.00
2013-7-1,85,78,73,61,55,50,59,45,32,29.26,29.12,8,1,8,0.00
2013-7-2,88,78,73,66,58,51,67,52,30,29.38,29.26,10,1,10,0.00
2013-7-7,92,80,72,59,56,42,63,46,21,29.38,29.29,17,1,17,0.00
2013-7-8,89,79,70,63,52,40,69,44,19,29.41,29.35,10,1,10,0.00
2013-7-9,87,79,73,58,53,49,54,43,29,29.41,29.29,8,1,8,0.00
2013-7-10,87,79,74,63,56,47,62,47,29,29.32,29.15,10,1,10,0.00
2013-7-11,85,78,73,58,50,42,58,39,23,29.23,29.18,8,0,8,0.00
2013-7-15,93,87,79,56,49,41,45,28,18,29.59,29.50,6,0,6,0.00
2013-7-16,92,83,73,62,53,43,59,38,19,29.59,29.47,7,0,7,0.00
2013-7-17,93,84,75,62,52,43,58,35,18,29.56,29.41,8,0,8,0.00
2013-7-18,95,86,76,64,56,47,60,38,20,29.44,29.32,6,0,6,0.00
2013-7-19,82,79,77,63,61,60,59,55,50,29.32,29.29,6,0,6,0.00
2013-7-20,94,88,79,52,47,43,38,25,19,29.21,29.09,10,2,10,0.00
2013-7-21,90,80,73,60,54,43,61,42,21,29.26,29.21,7,0,7,0.00
2013-7-22,88,77,71,68,60,51,85,59,29,29.26,29.06,5,0,6,0.04
2013-7-23,86,78,73,76,56,41,88,53,21,29.09,28.97,11,1,11,0.04
2013-7-24,77,74,70,49,46,43,47,37,30,29.03,29.00,8,0,8,0.00
2013-8-2,85,80,70,42,37,32,35,22,16,29.26,29.21,12,2,12,0.00
2013-8-3,76,70,68,56,46,40,50,43,34,29.29,29.23,5,0,5,0.00
2013-8-9,87,82,76,63,55,51,51,40,31,29.26,29.18,9,2,9,0.00
2013-8-10,82,76,71,59,50,37,62,42,21,29.38,29.26,4,0,8,0.00
2013-8-11,85,76,70,59,52,47,63,45,29,29.41,29.29,7,0,7,0.00
2013-8-12,86,77,69,64,51,39,69,44,19,29.32,29.23,8,1,8,0.00
2013-8-14,72,68,62,36,31,28,37,25,22,29.41,29.29,11,2,11,0.00
2013-8-18,72,68,64,50,46,42,58,46,35,29.53,29.44,4,0,4,0.00
2013-8-19,64,62,62,52,50,49,68,64,58,29.47,29.38,0,0,0,0.00
2013-8-20,85,74,64,62,49,40,70,46,21,29.47,29.38,7,0,8,0.00
2013-8-21,90,77,66,58,52,48,64,43,25,29.47,29.35,8,0,8,0.00
2013-8-22,86,80,73,49,45,42,42,30,22,29.26,29.23,9,1,9,0.00
2013-8-23,74,70,63,60,52,43,70,54,35,29.41,29.23,4,0,4,0.00
2013-8-24,67,62,59,56,50,48,69,67,60,29.56,29.41,4,0,4,0.00
2013-8-28,77,76,75,63,63,62,66,63,61,29.12,29.09,4,0,4,0.00
2013-9-1,91,82,74,54,50,45,48,33,21,29.09,29.03,6,1,6,0.00
2013-9-2,91,79,71,65,53,41,68,44,19,29.09,29.00,9,1,9,0.00
2013-9-3,81,75,71,55,45,35,50,36,20,29.18,29.03,10,2,10,0.00
2013-9-4,76,69,65,43,39,33,43,33,21,29.35,29.29,4,0,4,0.00
2013-9-5,80,70,60,46,38,28,55,34,20,29.44,29.32,10,1,10,0.00
2013-9-6,72,63,52,37,30,23,50,31,16,29.68,29.44,6,0,6,0.00
2013-9-7,80,65,52,43,35,30,55,36,17,29.62,29.26,9,0,9,0.00
2013-9-8,86,74,64,49,44,40,53,37,21,29.41,29.23,9,1,9,0.00
2013-9-9,81,70,62,51,41,32,52,35,22,29.62,29.41,6,0,6,0.00
2013-9-10,93,79,68,59,53,44,66,43,20,29.59,29.38,8,1,8,0.00
2013-9-11,77,76,75,58,57,56,55,53,49,29.59,29.47,4,0,4,0.00
2013-9-15,77,71,64,42,36,32,44,29,21,30.21,29.50,8,1,8,0.00
2013-9-16,70,65,61,51,43,36,66,46,29,29.94,29.50,8,1,8,0.00
2013-9-18,70,62,55,33,30,28,43,31,22,30.24,29.74,5,0,5,0.00
2013-9-19,77,62,50,43,38,33,60,41,23,30.77,29.41,5,2,5,0.00
2013-9-20,81,68,56,55,46,42,66,48,27,29.97,29.26,4,0,4,0.00
2013-9-21,73,66,62,57,53,48,73,62,42,30.03,29.09,0,0,0,0.00
2013-9-22,70,62,55,53,39,26,73,48,22,30.24,29.32,10,1,10,0.00
2013-9-23,63,57,49,35,28,24,48,34,24,31.01,29.91,8,0,8,0.00
2013-9-24,69,55,42,40,31,27,61,42,23,31.01,30.33,10,0,10,0.00
2013-9-25,71,57,46,45,33,28,65,43,22,31.01,30.15,0,0,0,0.00
2013-9-26,72,60,49,45,34,23,63,41,17,31.01,29.85,4,0,4,0.00
2013-9-30,73,67,58,38,34,30,47,31,22,30.65,29.83,4,2,4,0.00
2013-10-1,79,67,57,51,40,33,63,40,20,31.01,29.44,6,1,6,0.00
2013-10-2,81,70,59,48,41,34,56,38,20,30.92,29.38,4,1,4,0.00
2013-10-3,83,70,59,50,44,39,59,42,22,31.01,29.41,2,2,2,0.00
2013-10-4,68,64,62,55,50,48,66,60,52,30.92,29.56,2,2,2,0.00
2013-11-20,44,37,31,8,5,1,37,26,20,29.83,29.74,4,0,4,0.00
2013-11-21,51,39,29,25,18,7,50,42,34,29.83,29.65,0,0,0,0.00
2013-11-22,64,54,41,39,32,24,54,44,34,29.65,29.32,0,0,0,0.00
2013-11-23,53,49,46,28,25,20,42,38,35,29.44,29.38,0,0,0,0.00
2013-11-24,27,24,22,-8,-9,-10,25,23,21,29.80,29.71,6,0,6,0.00
2013-11-25,37,28,17,1,-5,-11,33,23,19,29.83,29.59,6,2,6,0.00
2013-11-26,37,35,34,32,16,-1,83,49,22,29.59,28.94,2,2,2,0.00
2013-11-27,40,35,27,36,18,-2,86,52,28,29.35,28.88,2,2,2,0.00
2013-11-28,35,30,26,5,2,-2,31,29,25,29.74,29.35,8,1,8,0.00
2013-11-29,31,28,27,8,5,3,41,37,31,29.80,29.71,0,0,0,0.00
2013-12-3,49,41,38,22,20,18,50,42,31,29.26,29.21,0,0,0,0.00
2013-12-4,55,44,34,32,25,18,59,49,36,29.35,29.26,0,0,0,0.00
2013-12-5,66,55,42,51,40,31,71,59,41,29.32,29.21,0,0,0,0.00
2013-12-6,60,59,56,51,49,46,71,68,65,29.21,29.18,0,0,0,0.00
2013-12-8,29,27,26,18,14,12,64,59,54,29.74,29.59,0,0,0,0.00
2013-12-9,40,34,29,30,24,18,71,66,60,29.59,29.32,0,0,0,0.00
2013-12-10,39,33,26,29,17,1,73,53,30,29.50,29.26,2,0,2,0.00
2013-12-11,28,27,26,2,1,0,33,32,31,29.59,29.50,0,0,0,0.00
2013-12-12,29,25,21,0,-5,-9,32,26,21,29.71,29.50,4,0,4,0.00
2013-12-13,39,30,21,6,1,-9,35,28,24,29.56,29.47,8,0,8,0.00
2013-12-14,36,34,31,25,17,6,67,51,35,29.59,29.03,0,0,0,0.00
2013-12-15,43,36,32,32,17,7,73,49,31,29.23,28.94,0,0,0,0.00
2013-12-16,36,33,31,13,10,9,43,38,33,29.44,29.23,0,0,0,0.00
2013-12-17,44,36,31,20,16,11,52,44,36,29.41,29.21,0,0,0,0.00
2013-12-18,40,33,26,19,8,3,55,36,28,29.50,29.29,0,0,0,0.00
2013-12-19,55,41,25,18,12,5,43,31,20,29.47,29.32,0,0,0,0.00
2013-12-20,57,50,45,19,16,14,28,26,22,29.38,29.26,0,0,0,0.00
2013-12-23,59,48,37,50,27,10,73,46,31,29.53,29.21,0,0,0,0.00
2013-12-24,38,33,30,13,9,6,41,35,29,29.56,29.50,0,0,0,0.00
2013-12-25,29,27,25,-2,-3,-5,27,26,25,29.65,29.59,0,0,0,0.00
2013-12-26,45,33,23,13,2,-5,33,27,20,29.62,29.50,0,0,0,0.00
2013-12-27,47,34,25,10,3,-3,35,26,17,29.68,29.59,0,0,0,0.00
2013-12-28,57,43,31,18,8,3,31,24,17,29.62,29.38,0,0,0,0.04
2013-12-29,50,45,40,43,28,6,85,56,19,29.38,28.88,0,0,0,1.10
2013-12-30,47,39,31,25,16,9,48,39,33,29.44,29.12,0,0,0,0.00